Okolona, Ohio
Current Conditions -  °F | °C
As of 9:01 AM on Monday 24 Nov 2014 (Local Time) from KDFI Reporting Station
Overcast Overcast  
Wind Chill: 57°   Ceiling: 6500
Heat Index: 57°   Visibility: 10mi
Dew Point: 53°   Wind: 16mph
Humidity: 87%   Direction: 190°S
Pressure: 29.14"   Gusts: 24mph
Location:  41.36°N, 84.22°W
Report Text: KDFI 241401Z AUTO 19014G21KT 10SM FEW025 BKN065 OVC110 14/12 A2914 RMK AO2 RAE1356 P0000 T01390117
Loading
Personal Weather Stations






























Interactive Weather Map New forecast layout! Learn more

10-Day Weather Forecast

Advertisements
Track Severe Weather on mobile